sensor_id;sensor_type;location;lat;lon;timestamp;pressure;altitude;pressure_sealevel;temperature;humidity
27294;BME280;14785;52.556;13.430;2023-04-26T00:02:21;100506.00;;;5.51;100.00
27294;BME280;14785;52.556;13.430;2023-04-26T00:04:50;100516.13;;;5.46;100.00
27294;BME280;14785;52.556;13.430;2023-04-26T00:07:20;100502.09;;;5.66;100.00
27294;BME280;14785;52.556;13.430;2023-04-26T00:09:46;100513.16;;;5.60;100.00
27294;BME280;14785;52.556;13.430;2023-04-26T00:12:12;100513.94;;;5.51;100.00
27294;BME280;14785;52.556;13.430;2023-04-26T00:14:37;100524.44;;;5.41;100.00
27294;BME280;14785;52.556;13.430;2023-04-26T00:17:03;100516.25;;;5.44;100.00
27294;BME280;14785;52.556;13.430;2023-04-26T00:19:29;100534.97;;;5.41;100.00
27294;BME280;14785;52.556;13.430;2023-04-26T00:21:56;100519.72;;;5.45;100.00
27294;BME280;14785;52.556;13.430;2023-04-26T00:24:21;100522.69;;;5.31;100.00
27294;BME280;14785;52.556;13.430;2023-04-26T00:26:47;100520.22;;;5.39;100.00
27294;BME280;14785;52.556;13.430;2023-04-26T00:29:13;100514.38;;;5.35;100.00
27294;BME280;14785;52.556;13.430;2023-04-26T00:31:39;100514.56;;;5.43;100.00
27294;BME280;14785;52.556;13.430;2023-04-26T00:34:04;100508.78;;;5.29;100.00
27294;BME280;14785;52.556;13.430;2023-04-26T00:36:29;100510.69;;;5.27;100.00
27294;BME280;14785;52.556;13.430;2023-04-26T00:38:56;100518.41;;;5.19;100.00
27294;BME280;14785;52.556;13.430;2023-04-26T00:41:21;100511.03;;;5.33;100.00
27294;BME280;14785;52.556;13.430;2023-04-26T00:43:48;100516.72;;;5.18;100.00
27294;BME280;14785;52.556;13.430;2023-04-26T00:46:13;100517.81;;;5.15;100.00
27294;BME280;14785;52.556;13.430;2023-04-26T00:48:39;100512.22;;;5.09;100.00
27294;BME280;14785;52.556;13.430;2023-04-26T00:51:05;100529.56;;;5.11;100.00
27294;BME280;14785;52.556;13.430;2023-04-26T00:53:31;100534.25;;;5.08;100.00
27294;BME280;14785;52.556;13.430;2023-04-26T00:55:58;100508.28;;;5.24;100.00
27294;BME280;14785;52.556;13.430;2023-04-26T00:58:24;100508.63;;;5.10;100.00
27294;BME280;14785;52.556;13.430;2023-04-26T01:00:50;100511.19;;;5.21;100.00
27294;BME280;14785;52.556;13.430;2023-04-26T01:03:15;100522.66;;;4.99;100.00
27294;BME280;14785;52.556;13.430;2023-04-26T01:05:42;100516.78;;;5.07;100.00
27294;BME280;14785;52.556;13.430;2023-04-26T01:08:07;100532.59;;;5.07;100.00
27294;BME280;14785;52.556;13.430;2023-04-26T01:10:33;100527.69;;;5.34;100.00
27294;BME280;14785;52.556;13.430;2023-04-26T01:13:00;100520.81;;;5.11;100.00
27294;BME280;14785;52.556;13.430;2023-04-26T01:15:25;100528.56;;;4.81;100.00
27294;BME280;14785;52.556;13.430;2023-04-26T01:17:58;100524.69;;;5.07;100.00
27294;BME280;14785;52.556;13.430;2023-04-26T01:20:23;100512.91;;;5.11;100.00
27294;BME280;14785;52.556;13.430;2023-04-26T01:22:50;100527.56;;;5.04;100.00
27294;BME280;14785;52.556;13.430;2023-04-26T01:25:16;100525.66;;;4.95;100.00
27294;BME280;14785;52.556;13.430;2023-04-26T01:27:42;100532.16;;;4.80;100.00
27294;BME280;14785;52.556;13.430;2023-04-26T01:30:08;100530.03;;;4.85;100.00
27294;BME280;14785;52.556;13.430;2023-04-26T01:32:34;100540.63;;;4.94;100.00
27294;BME280;14785;52.556;13.430;2023-04-26T01:35:00;100554.22;;;4.68;100.00
27294;BME280;14785;52.556;13.430;2023-04-26T01:37:25;100562.38;;;4.76;100.00
27294;BME280;14785;52.556;13.430;2023-04-26T01:39:51;100552.53;;;4.78;100.00
27294;BME280;14785;52.556;13.430;2023-04-26T01:42:16;100560.22;;;4.70;100.00
27294;BME280;14785;52.556;13.430;2023-04-26T01:44:42;100551.59;;;4.79;100.00
27294;BME280;14785;52.556;13.430;2023-04-26T01:47:07;100550.13;;;4.75;100.00
27294;BME280;14785;52.556;13.430;2023-04-26T01:49:32;100545.09;;;4.72;100.00
27294;BME280;14785;52.556;13.430;2023-04-26T01:51:58;100551.09;;;4.63;100.00
27294;BME280;14785;52.556;13.430;2023-04-26T01:54:24;100552.56;;;4.67;100.00
27294;BME280;14785;52.556;13.430;2023-04-26T01:56:49;100574.09;;;4.50;100.00
27294;BME280;14785;52.556;13.430;2023-04-26T01:59:15;100552.69;;;4.54;100.00
27294;BME280;14785;52.556;13.430;2023-04-26T02:01:41;100554.66;;;4.84;100.00
27294;BME280;14785;52.556;13.430;2023-04-26T02:04:07;100548.59;;;4.61;100.00
27294;BME280;14785;52.556;13.430;2023-04-26T02:06:32;100559.88;;;4.41;100.00
27294;BME280;14785;52.556;13.430;2023-04-26T02:08:58;100565.47;;;4.48;100.00
27294;BME280;14785;52.556;13.430;2023-04-26T02:11:23;100555.69;;;4.50;100.00
27294;BME280;14785;52.556;13.430;2023-04-26T02:13:51;100541.06;;;4.57;100.00
27294;BME280;14785;52.556;13.430;2023-04-26T02:16:16;100573.13;;;4.51;100.00
27294;BME280;14785;52.556;13.430;2023-04-26T02:18:42;100548.25;;;4.33;100.00
27294;BME280;14785;52.556;13.430;2023-04-26T02:21:10;100545.38;;;4.47;100.00
27294;BME280;14785;52.556;13.430;2023-04-26T02:23:35;100552.56;;;4.34;100.00
27294;BME280;14785;52.556;13.430;2023-04-26T02:26:01;100551.97;;;4.41;100.00
27294;BME280;14785;52.556;13.430;2023-04-26T02:28:27;100554.38;;;4.44;100.00
27294;BME280;14785;52.556;13.430;2023-04-26T02:30:52;100552.06;;;4.51;100.00
27294;BME280;14785;52.556;13.430;2023-04-26T02:33:18;100554.50;;;4.43;100.00
27294;BME280;14785;52.556;13.430;2023-04-26T02:35:43;100553.75;;;4.30;100.00
27294;BME280;14785;52.556;13.430;2023-04-26T02:38:09;100550.28;;;4.18;100.00
27294;BME280;14785;52.556;13.430;2023-04-26T02:40:34;100545.03;;;4.29;100.00
27294;BME280;14785;52.556;13.430;2023-04-26T02:43:00;100550.41;;;4.50;100.00
27294;BME280;14785;52.556;13.430;2023-04-26T02:45:25;100553.28;;;4.58;100.00
27294;BME280;14785;52.556;13.430;2023-04-26T02:47:51;100552.09;;;4.29;100.00
27294;BME280;14785;52.556;13.430;2023-04-26T02:50:16;100553.16;;;4.37;100.00
27294;BME280;14785;52.556;13.430;2023-04-26T02:52:42;100551.72;;;4.22;100.00
27294;BME280;14785;52.556;13.430;2023-04-26T02:55:07;100542.03;;;4.23;100.00
27294;BME280;14785;52.556;13.430;2023-04-26T02:57:33;100543.22;;;4.30;100.00
27294;BME280;14785;52.556;13.430;2023-04-26T02:59:59;100550.41;;;4.17;100.00
27294;BME280;14785;52.556;13.430;2023-04-26T03:02:25;100553.66;;;4.20;100.00
27294;BME280;14785;52.556;13.430;2023-04-26T03:04:50;100555.53;;;4.18;100.00
27294;BME280;14785;52.556;13.430;2023-04-26T03:07:16;100564.75;;;4.13;100.00
27294;BME280;14785;52.556;13.430;2023-04-26T03:09:41;100547.66;;;4.18;100.00
27294;BME280;14785;52.556;13.430;2023-04-26T03:12:07;100551.81;;;4.21;100.00
27294;BME280;14785;52.556;13.430;2023-04-26T03:14:33;100546.09;;;4.16;100.00
27294;BME280;14785;52.556;13.430;2023-04-26T03:16:59;100573.25;;;4.16;100.00
27294;BME280;14785;52.556;13.430;2023-04-26T03:19:25;100556.59;;;4.05;100.00
27294;BME280;14785;52.556;13.430;2023-04-26T03:21:52;100566.50;;;3.90;100.00
27294;BME280;14785;52.556;13.430;2023-04-26T03:24:18;100556.16;;;4.22;100.00
27294;BME280;14785;52.556;13.430;2023-04-26T03:26:43;100545.38;;;4.25;100.00
27294;BME280;14785;52.556;13.430;2023-04-26T03:29:08;100562.81;;;4.15;100.00
27294;BME280;14785;52.556;13.430;2023-04-26T03:31:34;100562.59;;;4.07;100.00
27294;BME280;14785;52.556;13.430;2023-04-26T03:34:00;100562.59;;;4.07;100.00
27294;BME280;14785;52.556;13.430;2023-04-26T03:36:25;100570.22;;;3.98;100.00
27294;BME280;14785;52.556;13.430;2023-04-26T03:38:53;100570.47;;;3.95;100.00
27294;BME280;14785;52.556;13.430;2023-04-26T03:41:18;100590.34;;;4.00;100.00
27294;BME280;14785;52.556;13.430;2023-04-26T03:43:44;100574.22;;;4.04;100.00
27294;BME280;14785;52.556;13.430;2023-04-26T03:46:09;100567.41;;;4.13;100.00
27294;BME280;14785;52.556;13.430;2023-04-26T03:48:35;100572.16;;;3.97;100.00
27294;BME280;14785;52.556;13.430;2023-04-26T03:51:01;100576.72;;;4.06;100.00
27294;BME280;14785;52.556;13.430;2023-04-26T03:53:27;100571.19;;;3.97;100.00
27294;BME280;14785;52.556;13.430;2023-04-26T03:55:52;100575.09;;;3.81;100.00
27294;BME280;14785;52.556;13.430;2023-04-26T03:58:18;100582.91;;;3.93;100.00
27294;BME280;14785;52.556;13.430;2023-04-26T04:00:43;100580.75;;;3.87;100.00
27294;BME280;14785;52.556;13.430;2023-04-26T04:03:08;100591.16;;;4.00;100.00
27294;BME280;14785;52.556;13.430;2023-04-26T04:05:34;100580.75;;;3.98;100.00
27294;BME280;14785;52.556;13.430;2023-04-26T04:07:59;100589.97;;;3.93;100.00
27294;BME280;14785;52.556;13.430;2023-04-26T04:10:26;100597.97;;;3.91;100.00
27294;BME280;14785;52.556;13.430;2023-04-26T04:12:51;100586.47;;;3.92;100.00
27294;BME280;14785;52.556;13.430;2023-04-26T04:15:18;100588.81;;;4.08;100.00
27294;BME280;14785;52.556;13.430;2023-04-26T04:17:44;100587.97;;;4.19;100.00
27294;BME280;14785;52.556;13.430;2023-04-26T04:20:10;100609.91;;;3.84;100.00
27294;BME280;14785;52.556;13.430;2023-04-26T04:22:36;100604.31;;;4.00;100.00
27294;BME280;14785;52.556;13.430;2023-04-26T04:25:05;100595.09;;;3.94;100.00
27294;BME280;14785;52.556;13.430;2023-04-26T04:27:31;100576.22;;;4.12;100.00
27294;BME280;14785;52.556;13.430;2023-04-26T04:29:56;100596.31;;;4.02;100.00
27294;BME280;14785;52.556;13.430;2023-04-26T04:32:22;100600.59;;;3.91;100.00
27294;BME280;14785;52.556;13.430;2023-04-26T04:34:48;100603.97;;;3.93;100.00
27294;BME280;14785;52.556;13.430;2023-04-26T04:37:15;100599.75;;;3.91;100.00
27294;BME280;14785;52.556;13.430;2023-04-26T04:39:41;100617.38;;;4.02;100.00
27294;BME280;14785;52.556;13.430;2023-04-26T04:42:08;100609.13;;;3.95;100.00
27294;BME280;14785;52.556;13.430;2023-04-26T04:44:34;100604.22;;;4.02;100.00
27294;BME280;14785;52.556;13.430;2023-04-26T04:47:01;100610.41;;;3.89;100.00
27294;BME280;14785;52.556;13.430;2023-04-26T04:49:26;100606.38;;;4.08;100.00
27294;BME280;14785;52.556;13.430;2023-04-26T04:51:52;100611.88;;;4.05;100.00
27294;BME280;14785;52.556;13.430;2023-04-26T04:54:17;100616.91;;;4.08;100.00
27294;BME280;14785;52.556;13.430;2023-04-26T04:56:46;100626.41;;;4.43;100.00
27294;BME280;14785;52.556;13.430;2023-04-26T04:59:11;100583.28;;;4.22;100.00
27294;BME280;14785;52.556;13.430;2023-04-26T05:01:37;100613.59;;;4.28;100.00
27294;BME280;14785;52.556;13.430;2023-04-26T05:04:03;100626.75;;;4.39;100.00
27294;BME280;14785;52.556;13.430;2023-04-26T05:06:29;100617.16;;;4.16;100.00
27294;BME280;14785;52.556;13.430;2023-04-26T05:08:56;100642.56;;;4.28;100.00
27294;BME280;14785;52.556;13.430;2023-04-26T05:11:22;100625.75;;;4.18;100.00
27294;BME280;14785;52.556;13.430;2023-04-26T05:13:48;100627.19;;;4.11;100.00
27294;BME280;14785;52.556;13.430;2023-04-26T05:16:13;100636.56;;;4.26;100.00
27294;BME280;14785;52.556;13.430;2023-04-26T05:18:39;100633.56;;;4.30;100.00
27294;BME280;14785;52.556;13.430;2023-04-26T05:21:04;100623.66;;;4.45;100.00
27294;BME280;14785;52.556;13.430;2023-04-26T05:23:30;100636.84;;;4.67;100.00
27294;BME280;14785;52.556;13.430;2023-04-26T05:26:00;100627.28;;;4.55;100.00
27294;BME280;14785;52.556;13.430;2023-04-26T05:28:26;100627.63;;;4.72;100.00
27294;BME280;14785;52.556;13.430;2023-04-26T05:30:53;100642.59;;;4.50;100.00
27294;BME280;14785;52.556;13.430;2023-04-26T05:33:18;100640.06;;;4.81;100.00
27294;BME280;14785;52.556;13.430;2023-04-26T05:35:44;100653.84;;;4.52;100.00
27294;BME280;14785;52.556;13.430;2023-04-26T05:38:11;100644.25;;;4.62;100.00
27294;BME280;14785;52.556;13.430;2023-04-26T05:40:36;100642.84;;;4.91;100.00
27294;BME280;14785;52.556;13.430;2023-04-26T05:43:02;100656.97;;;4.68;100.00
27294;BME280;14785;52.556;13.430;2023-04-26T05:45:27;100656.75;;;4.82;100.00
27294;BME280;14785;52.556;13.430;2023-04-26T05:47:54;100653.84;;;4.74;100.00
27294;BME280;14785;52.556;13.430;2023-04-26T05:50:20;100659.00;;;4.86;100.00
27294;BME280;14785;52.556;13.430;2023-04-26T05:52:45;100662.72;;;4.95;100.00
27294;BME280;14785;52.556;13.430;2023-04-26T05:55:11;100654.81;;;5.06;100.00
27294;BME280;14785;52.556;13.430;2023-04-26T05:57:38;100665.09;;;4.98;100.00
27294;BME280;14785;52.556;13.430;2023-04-26T06:00:04;100649.50;;;5.28;100.00
27294;BME280;14785;52.556;13.430;2023-04-26T06:02:30;100660.41;;;5.12;100.00
27294;BME280;14785;52.556;13.430;2023-04-26T06:04:55;100652.69;;;5.31;100.00
27294;BME280;14785;52.556;13.430;2023-04-26T06:07:21;100657.16;;;5.20;100.00
27294;BME280;14785;52.556;13.430;2023-04-26T06:09:46;100662.44;;;5.20;100.00
27294;BME280;14785;52.556;13.430;2023-04-26T06:12:12;100664.22;;;5.30;100.00
27294;BME280;14785;52.556;13.430;2023-04-26T06:14:37;100652.97;;;5.60;100.00
27294;BME280;14785;52.556;13.430;2023-04-26T06:17:03;100658.47;;;5.68;100.00
27294;BME280;14785;52.556;13.430;2023-04-26T06:19:28;100662.91;;;5.67;100.00
27294;BME280;14785;52.556;13.430;2023-04-26T06:21:54;100650.47;;;5.58;100.00
27294;BME280;14785;52.556;13.430;2023-04-26T06:24:22;100659.91;;;5.83;100.00
27294;BME280;14785;52.556;13.430;2023-04-26T06:26:47;100660.81;;;5.93;100.00
27294;BME280;14785;52.556;13.430;2023-04-26T06:29:12;100648.28;;;6.06;100.00
27294;BME280;14785;52.556;13.430;2023-04-26T06:31:38;100653.59;;;6.36;100.00
27294;BME280;14785;52.556;13.430;2023-04-26T06:34:03;100672.31;;;6.03;100.00
27294;BME280;14785;52.556;13.430;2023-04-26T06:36:29;100672.09;;;5.95;100.00
27294;BME280;14785;52.556;13.430;2023-04-26T06:38:55;100678.00;;;5.88;100.00
27294;BME280;14785;52.556;13.430;2023-04-26T06:41:21;100666.50;;;6.09;100.00
27294;BME280;14785;52.556;13.430;2023-04-26T06:43:46;100670.69;;;6.32;100.00
27294;BME280;14785;52.556;13.430;2023-04-26T06:46:13;100683.50;;;6.57;100.00
27294;BME280;14785;52.556;13.430;2023-04-26T06:48:39;100671.25;;;6.56;100.00
27294;BME280;14785;52.556;13.430;2023-04-26T06:51:08;100677.09;;;6.80;100.00
27294;BME280;14785;52.556;13.430;2023-04-26T06:53:34;100680.84;;;5.96;100.00
27294;BME280;14785;52.556;13.430;2023-04-26T06:56:00;100682.66;;;6.36;100.00
27294;BME280;14785;52.556;13.430;2023-04-26T06:58:25;100670.50;;;6.24;100.00
27294;BME280;14785;52.556;13.430;2023-04-26T07:00:51;100669.34;;;6.17;100.00
27294;BME280;14785;52.556;13.430;2023-04-26T07:03:16;100676.19;;;6.40;100.00
27294;BME280;14785;52.556;13.430;2023-04-26T07:05:42;100676.47;;;6.67;100.00
27294;BME280;14785;52.556;13.430;2023-04-26T07:08:07;100671.06;;;6.48;100.00
27294;BME280;14785;52.556;13.430;2023-04-26T07:10:32;100672.44;;;6.43;100.00
27294;BME280;14785;52.556;13.430;2023-04-26T07:12:59;100672.44;;;6.43;100.00
27294;BME280;14785;52.556;13.430;2023-04-26T07:15:24;100679.69;;;6.71;100.00
27294;BME280;14785;52.556;13.430;2023-04-26T07:17:50;100688.88;;;6.46;100.00
27294;BME280;14785;52.556;13.430;2023-04-26T07:20:15;100671.72;;;6.61;100.00
27294;BME280;14785;52.556;13.430;2023-04-26T07:22:44;100694.00;;;6.68;100.00
27294;BME280;14785;52.556;13.430;2023-04-26T07:25:09;100696.13;;;6.74;100.00
27294;BME280;14785;52.556;13.430;2023-04-26T07:27:35;100696.06;;;6.85;100.00
27294;BME280;14785;52.556;13.430;2023-04-26T07:30:00;100687.00;;;6.88;100.00
27294;BME280;14785;52.556;13.430;2023-04-26T07:32:26;100706.75;;;6.63;100.00
27294;BME280;14785;52.556;13.430;2023-04-26T07:34:51;100684.16;;;6.70;100.00
27294;BME280;14785;52.556;13.430;2023-04-26T07:37:17;100690.50;;;7.18;100.00
27294;BME280;14785;52.556;13.430;2023-04-26T07:39:43;100679.84;;;7.09;100.00
27294;BME280;14785;52.556;13.430;2023-04-26T07:42:08;100684.56;;;7.54;100.00
27294;BME280;14785;52.556;13.430;2023-04-26T07:44:33;100675.03;;;7.23;100.00
27294;BME280;14785;52.556;13.430;2023-04-26T07:46:59;100693.72;;;7.31;100.00
27294;BME280;14785;52.556;13.430;2023-04-26T07:49:24;100692.41;;;7.65;100.00
27294;BME280;14785;52.556;13.430;2023-04-26T07:51:49;100707.63;;;7.33;100.00
27294;BME280;14785;52.556;13.430;2023-04-26T07:54:16;100704.06;;;7.53;100.00
27294;BME280;14785;52.556;13.430;2023-04-26T07:56:41;100694.94;;;7.76;100.00
27294;BME280;14785;52.556;13.430;2023-04-26T07:59:06;100696.72;;;7.66;100.00
27294;BME280;14785;52.556;13.430;2023-04-26T08:01:32;100731.19;;;7.36;100.00
27294;BME280;14785;52.556;13.430;2023-04-26T08:03:58;100701.22;;;7.26;100.00
27294;BME280;14785;52.556;13.430;2023-04-26T08:06:23;100701.06;;;7.67;100.00
27294;BME280;14785;52.556;13.430;2023-04-26T08:08:49;100688.94;;;7.94;100.00
27294;BME280;14785;52.556;13.430;2023-04-26T08:11:17;100691.31;;;8.54;100.00
27294;BME280;14785;52.556;13.430;2023-04-26T08:13:42;100704.41;;;8.46;100.00
27294;BME280;14785;52.556;13.430;2023-04-26T08:16:11;100708.88;;;8.17;100.00
27294;BME280;14785;52.556;13.430;2023-04-26T08:18:36;100707.19;;;7.77;100.00
27294;BME280;14785;52.556;13.430;2023-04-26T08:21:02;100710.84;;;7.96;100.00
27294;BME280;14785;52.556;13.430;2023-04-26T08:23:28;100691.31;;;7.87;100.00
27294;BME280;14785;52.556;13.430;2023-04-26T08:25:56;100723.25;;;7.36;100.00
27294;BME280;14785;52.556;13.430;2023-04-26T08:28:22;100725.81;;;7.66;100.00
27294;BME280;14785;52.556;13.430;2023-04-26T08:30:47;100710.41;;;7.91;100.00
27294;BME280;14785;52.556;13.430;2023-04-26T08:33:13;100704.50;;;7.58;100.00
27294;BME280;14785;52.556;13.430;2023-04-26T08:35:38;100709.44;;;8.01;100.00
27294;BME280;14785;52.556;13.430;2023-04-26T08:38:03;100703.06;;;8.23;100.00
27294;BME280;14785;52.556;13.430;2023-04-26T08:40:29;100704.69;;;8.43;100.00
27294;BME280;14785;52.556;13.430;2023-04-26T08:42:55;100710.28;;;8.59;100.00
27294;BME280;14785;52.556;13.430;2023-04-26T08:45:21;100714.53;;;8.79;100.00
27294;BME280;14785;52.556;13.430;2023-04-26T08:50:13;100700.53;;;8.31;100.00
27294;BME280;14785;52.556;13.430;2023-04-26T08:52:40;100731.88;;;7.97;100.00
27294;BME280;14785;52.556;13.430;2023-04-26T08:55:10;100722.22;;;7.67;100.00
27294;BME280;14785;52.556;13.430;2023-04-26T08:57:37;100728.66;;;7.94;100.00
27294;BME280;14785;52.556;13.430;2023-04-26T09:00:05;100710.59;;;8.27;100.00
27294;BME280;14785;52.556;13.430;2023-04-26T09:02:34;100705.41;;;8.45;100.00
27294;BME280;14785;52.556;13.430;2023-04-26T09:05:00;100713.34;;;8.45;100.00
27294;BME280;14785;52.556;13.430;2023-04-26T09:07:30;100738.72;;;8.57;100.00
27294;BME280;14785;52.556;13.430;2023-04-26T09:09:57;100713.47;;;7.96;100.00
27294;BME280;14785;52.556;13.430;2023-04-26T09:12:23;100724.53;;;8.39;100.00
27294;BME280;14785;52.556;13.430;2023-04-26T09:14:49;100743.28;;;7.78;100.00
27294;BME280;14785;52.556;13.430;2023-04-26T09:17:31;100719.47;;;8.07;100.00
27294;BME280;14785;52.556;13.430;2023-04-26T09:20:00;100720.19;;;8.19;100.00
27294;BME280;14785;52.556;13.430;2023-04-26T09:24:57;100715.00;;;8.65;100.00
27294;BME280;14785;52.556;13.430;2023-04-26T09:27:31;100718.81;;;8.53;100.00
27294;BME280;14785;52.556;13.430;2023-04-26T09:30:03;100719.63;;;9.09;100.00
27294;BME280;14785;52.556;13.430;2023-04-26T09:35:31;100725.84;;;8.90;100.00
27294;BME280;14785;52.556;13.430;2023-04-26T09:38:02;100719.75;;;8.71;100.00
27294;BME280;14785;52.556;13.430;2023-04-26T09:40:29;100716.63;;;8.85;100.00
27294;BME280;14785;52.556;13.430;2023-04-26T09:43:17;100718.22;;;8.59;100.00
27294;BME280;14785;52.556;13.430;2023-04-26T09:48:24;100722.81;;;8.57;100.00
27294;BME280;14785;52.556;13.430;2023-04-26T09:50:52;100716.00;;;8.45;100.00
27294;BME280;14785;52.556;13.430;2023-04-26T09:53:36;100729.81;;;8.39;100.00
27294;BME280;14785;52.556;13.430;2023-04-26T09:59:01;100717.69;;;9.38;100.00
27294;BME280;14785;52.556;13.430;2023-04-26T10:01:29;100715.69;;;9.67;100.00
27294;BME280;14785;52.556;13.430;2023-04-26T10:03:56;100730.94;;;9.11;100.00
27294;BME280;14785;52.556;13.430;2023-04-26T10:06:22;100725.00;;;8.90;100.00
27294;BME280;14785;52.556;13.430;2023-04-26T10:08:47;100719.81;;;8.98;100.00
27294;BME280;14785;52.556;13.430;2023-04-26T10:11:12;100734.28;;;8.48;100.00
27294;BME280;14785;52.556;13.430;2023-04-26T10:13:39;100731.91;;;9.10;100.00
27294;BME280;14785;52.556;13.430;2023-04-26T10:16:06;100739.00;;;8.44;100.00
27294;BME280;14785;52.556;13.430;2023-04-26T10:18:32;100723.94;;;9.37;100.00
27294;BME280;14785;52.556;13.430;2023-04-26T10:21:11;100723.03;;;8.92;100.00
27294;BME280;14785;52.556;13.430;2023-04-26T10:23:39;100725.34;;;8.58;100.00
27294;BME280;14785;52.556;13.430;2023-04-26T10:26:05;100756.97;;;8.79;100.00
27294;BME280;14785;52.556;13.430;2023-04-26T10:31:05;100736.09;;;8.47;100.00
27294;BME280;14785;52.556;13.430;2023-04-26T10:33:32;100721.69;;;8.59;100.00
27294;BME280;14785;52.556;13.430;2023-04-26T10:38:35;100737.63;;;8.50;100.00
27294;BME280;14785;52.556;13.430;2023-04-26T10:41:26;100729.16;;;8.92;100.00
27294;BME280;14785;52.556;13.430;2023-04-26T10:43:52;100736.47;;;8.71;100.00
27294;BME280;14785;52.556;13.430;2023-04-26T10:46:36;100740.13;;;9.16;100.00
27294;BME280;14785;52.556;13.430;2023-04-26T10:49:12;100735.88;;;9.60;100.00
27294;BME280;14785;52.556;13.430;2023-04-26T10:51:39;100724.09;;;9.08;100.00
27294;BME280;14785;52.556;13.430;2023-04-26T10:54:04;100725.91;;;9.08;100.00
27294;BME280;14785;52.556;13.430;2023-04-26T10:59:19;100752.88;;;8.94;100.00
27294;BME280;14785;52.556;13.430;2023-04-26T11:01:44;100726.13;;;8.87;100.00
27294;BME280;14785;52.556;13.430;2023-04-26T11:04:10;100752.47;;;8.98;100.00
27294;BME280;14785;52.556;13.430;2023-04-26T11:06:55;100740.63;;;8.93;100.00
27294;BME280;14785;52.556;13.430;2023-04-26T11:09:47;100730.50;;;9.06;100.00
27294;BME280;14785;52.556;13.430;2023-04-26T11:12:14;100740.03;;;8.99;100.00
27294;BME280;14785;52.556;13.430;2023-04-26T11:14:41;100731.03;;;9.19;100.00
27294;BME280;14785;52.556;13.430;2023-04-26T11:17:11;100731.03;;;9.19;100.00
27294;BME280;14785;52.556;13.430;2023-04-26T11:19:37;100766.50;;;9.18;100.00
27294;BME280;14785;52.556;13.430;2023-04-26T11:22:05;100751.28;;;8.74;100.00
27294;BME280;14785;52.556;13.430;2023-04-26T11:24:32;100710.53;;;9.38;100.00
27294;BME280;14785;52.556;13.430;2023-04-26T11:27:01;100741.88;;;9.35;100.00
27294;BME280;14785;52.556;13.430;2023-04-26T11:29:32;100729.44;;;10.07;100.00
27294;BME280;14785;52.556;13.430;2023-04-26T11:31:57;100729.03;;;10.37;100.00
27294;BME280;14785;52.556;13.430;2023-04-26T11:34:41;100724.25;;;10.06;100.00
27294;BME280;14785;52.556;13.430;2023-04-26T11:37:08;100729.88;;;10.81;100.00
27294;BME280;14785;52.556;13.430;2023-04-26T11:39:35;100724.34;;;9.69;100.00
27294;BME280;14785;52.556;13.430;2023-04-26T11:42:08;100745.19;;;9.37;100.00
27294;BME280;14785;52.556;13.430;2023-04-26T11:44:35;100730.69;;;9.86;100.00
27294;BME280;14785;52.556;13.430;2023-04-26T11:47:02;100740.34;;;10.04;100.00
27294;BME280;14785;52.556;13.430;2023-04-26T11:49:28;100732.88;;;9.90;100.00
27294;BME280;14785;52.556;13.430;2023-04-26T11:51:54;100724.78;;;10.09;100.00
27294;BME280;14785;52.556;13.430;2023-04-26T11:54:30;100760.97;;;9.65;100.00
27294;BME280;14785;52.556;13.430;2023-04-26T11:56:57;100738.22;;;10.08;100.00
27294;BME280;14785;52.556;13.430;2023-04-26T11:59:26;100729.47;;;11.60;100.00
27294;BME280;14785;52.556;13.430;2023-04-26T12:01:57;100751.16;;;10.20;100.00
27294;BME280;14785;52.556;13.430;2023-04-26T12:04:29;100726.91;;;11.85;97.08
27294;BME280;14785;52.556;13.430;2023-04-26T12:06:55;100731.59;;;11.15;97.82
27294;BME280;14785;52.556;13.430;2023-04-26T12:09:28;100740.88;;;11.79;96.54
27294;BME280;14785;52.556;13.430;2023-04-26T12:11:56;100729.41;;;10.42;100.00
27294;BME280;14785;52.556;13.430;2023-04-26T12:14:38;100733.63;;;11.21;100.00
27294;BME280;14785;52.556;13.430;2023-04-26T12:17:05;100739.22;;;10.59;100.00
27294;BME280;14785;52.556;13.430;2023-04-26T12:19:32;100746.88;;;10.45;100.00
27294;BME280;14785;52.556;13.430;2023-04-26T12:21:58;100750.13;;;10.74;100.00
27294;BME280;14785;52.556;13.430;2023-04-26T12:24:25;100749.28;;;10.03;100.00
27294;BME280;14785;52.556;13.430;2023-04-26T12:26:51;100757.00;;;9.79;100.00
27294;BME280;14785;52.556;13.430;2023-04-26T12:29:17;100751.44;;;10.95;100.00
27294;BME280;14785;52.556;13.430;2023-04-26T12:31:42;100735.94;;;9.95;100.00
27294;BME280;14785;52.556;13.430;2023-04-26T12:34:08;100763.56;;;10.02;100.00
27294;BME280;14785;52.556;13.430;2023-04-26T12:36:33;100775.50;;;9.98;100.00
27294;BME280;14785;52.556;13.430;2023-04-26T12:38:59;100740.47;;;10.55;100.00
27294;BME280;14785;52.556;13.430;2023-04-26T12:41:27;100747.22;;;11.10;100.00
27294;BME280;14785;52.556;13.430;2023-04-26T12:43:53;100764.31;;;11.08;100.00
27294;BME280;14785;52.556;13.430;2023-04-26T12:46:18;100759.84;;;10.83;100.00
27294;BME280;14785;52.556;13.430;2023-04-26T12:48:45;100742.22;;;11.75;100.00
27294;BME280;14785;52.556;13.430;2023-04-26T12:51:10;100766.19;;;10.29;100.00
27294;BME280;14785;52.556;13.430;2023-04-26T12:53:36;100793.84;;;10.36;100.00
27294;BME280;14785;52.556;13.430;2023-04-26T12:56:01;100754.09;;;10.35;100.00
27294;BME280;14785;52.556;13.430;2023-04-26T12:58:27;100758.81;;;10.41;100.00